createdAt,value
2019-01-19T00:02:21.328Z,98413.12
2019-01-19T00:05:37.277Z,98417.59
2019-01-19T00:08:16.192Z,98411.94
2019-01-19T00:11:14.935Z,98414.67
2019-01-19T00:14:00.860Z,98417.77
2019-01-19T00:16:43.392Z,98414.95
2019-01-19T00:19:53.306Z,98411.77
2019-01-19T00:22:55.855Z,98408.28
2019-01-19T00:26:01.733Z,98405.32
2019-01-19T00:28:41.847Z,98404.42
2019-01-19T00:31:36.139Z,98407.20
2019-01-19T00:34:39.692Z,98403.98
2019-01-19T00:37:27.888Z,98406.02
2019-01-19T00:40:43.590Z,98409.29
2019-01-19T00:43:40.958Z,98399.10
2019-01-19T00:47:06.056Z,98396.19
2019-01-19T00:49:53.239Z,98402.46
2019-01-19T00:52:39.821Z,98394.81
2019-01-19T00:55:42.731Z,98398.00
2019-01-19T00:58:43.132Z,98392.91
2019-01-19T01:02:09.643Z,98397.25
2019-01-19T01:05:01.948Z,98398.34
2019-01-19T01:08:17.425Z,98393.80
2019-01-19T01:11:23.147Z,98394.56
2019-01-19T01:14:23.091Z,98390.53
2019-01-19T01:17:29.510Z,98392.65
2019-01-19T01:20:31.778Z,98397.74
2019-01-19T01:23:52.177Z,98390.79
2019-01-19T01:26:55.635Z,98398.04
2019-01-19T01:30:04.624Z,98398.83
2019-01-19T01:33:00.916Z,98392.87
2019-01-19T01:36:17.220Z,98393.27
2019-01-19T01:39:12.480Z,98392.34
2019-01-19T01:42:13.179Z,98387.14
2019-01-19T01:45:13.591Z,98378.67
2019-01-19T01:48:24.011Z,98386.12
2019-01-19T01:51:19.147Z,98377.41
2019-01-19T01:54:29.624Z,98379.55
2019-01-19T01:57:03.267Z,98367.47
2019-01-19T01:59:50.442Z,98372.91
2019-01-19T02:02:51.218Z,98375.26
2019-01-19T02:05:49.826Z,98373.88
2019-01-19T02:08:46.919Z,98371.15
2019-01-19T02:11:35.112Z,98370.10
2019-01-19T02:14:41.331Z,98370.04
2019-01-19T02:17:41.571Z,98357.20
2019-01-19T02:20:30.597Z,98357.51
2019-01-19T02:23:27.383Z,98355.27
2019-01-19T02:26:36.663Z,98354.30
2019-01-19T02:29:55.808Z,98352.20
2019-01-19T02:33:10.899Z,98349.84
2019-01-19T02:36:05.965Z,98346.95
2019-01-19T02:39:18.990Z,98341.88
2019-01-19T02:42:43.472Z,98345.88
2019-01-19T02:45:49.798Z,98343.67
2019-01-19T02:49:15.452Z,98347.24
2019-01-19T02:52:28.681Z,98339.16
2019-01-19T02:55:47.188Z,98346.89
2019-01-19T02:58:52.458Z,98340.33
2019-01-19T03:01:44.271Z,98339.41
2019-01-19T03:05:01.060Z,98339.09
2019-01-19T03:08:11.120Z,98336.70
2019-01-19T03:11:12.113Z,98343.05
2019-01-19T03:14:19.893Z,98332.61
2019-01-19T03:17:05.760Z,98336.83
2019-01-19T03:20:02.945Z,98338.64
2019-01-19T03:22:46.161Z,98342.31
2019-01-19T03:25:59.145Z,98336.89
2019-01-19T03:28:40.104Z,98333.44
2019-01-19T03:31:36.749Z,98332.41
2019-01-19T03:34:21.069Z,98335.13
2019-01-19T03:37:17.518Z,98330.02
2019-01-19T03:40:19.140Z,98335.19
2019-01-19T03:43:10.462Z,98329.52
2019-01-19T03:46:06.515Z,98325.17
2019-01-19T03:49:23.230Z,98321.87
2019-01-19T03:52:14.444Z,98323.48
2019-01-19T03:54:56.260Z,98327.20
2019-01-19T03:57:59.251Z,98331.18
2019-01-19T04:01:20.842Z,98329.52
2019-01-19T04:04:43.594Z,98333.46
2019-01-19T04:07:22.280Z,98327.90
2019-01-19T04:10:16.428Z,98325.13
2019-01-19T04:13:12.084Z,98322.92
2019-01-19T04:15:59.268Z,98325.48
2019-01-19T04:19:09.175Z,98319.33
2019-01-19T04:22:11.275Z,98332.13
2019-01-19T04:25:13.504Z,98321.45
2019-01-19T04:27:42.815Z,98326.52
2019-01-19T04:30:13.063Z,98322.17
2019-01-19T04:32:42.323Z,98323.01
2019-01-19T04:35:11.798Z,98323.01
2019-01-19T04:37:41.058Z,98324.84
2019-01-19T04:40:12.292Z,98332.13
2019-01-19T04:42:43.380Z,98323.98
2019-01-19T04:45:12.750Z,98328.91
2019-01-19T04:47:42.005Z,98326.20
2019-01-19T04:50:12.420Z,98321.45
2019-01-19T04:52:41.681Z,98317.98
2019-01-19T04:55:10.935Z,98318.70
2019-01-19T04:57:40.208Z,98318.14
2019-01-19T05:00:14.292Z,98315.89
2019-01-19T05:02:44.671Z,98316.20
2019-01-19T05:05:13.931Z,98311.89
2019-01-19T05:07:43.213Z,98314.77
2019-01-19T05:10:12.831Z,98308.41
2019-01-19T05:12:42.095Z,98309.69
2019-01-19T05:15:19.944Z,98306.08
2019-01-19T05:17:49.377Z,98310.36
2019-01-19T05:20:18.737Z,98309.16
2019-01-19T05:22:49.814Z,98306.36
2019-01-19T05:25:19.071Z,98302.16
2019-01-19T05:27:48.350Z,98300.70
2019-01-19T05:30:20.240Z,98299.05
2019-01-19T05:32:49.598Z,98298.77
2019-01-19T05:35:18.929Z,98293.92
2019-01-19T05:37:49.659Z,98297.09
2019-01-19T05:40:18.941Z,98298.70
2019-01-19T05:42:48.198Z,98293.98
2019-01-19T05:45:17.575Z,98291.81
2019-01-19T05:47:46.835Z,98292.67
2019-01-19T05:50:21.028Z,98299.88
2019-01-19T05:52:50.305Z,98293.09
2019-01-19T05:55:19.598Z,98299.76
2019-01-19T05:57:48.839Z,98295.95
2019-01-19T06:00:36.862Z,98290.95
2019-01-19T06:03:06.723Z,98289.83
2019-01-19T06:05:37.631Z,98291.27
2019-01-19T06:08:06.911Z,98289.00
2019-01-19T06:10:36.198Z,98291.11
2019-01-19T06:13:05.726Z,98300.66
2019-01-19T06:15:34.990Z,98300.45
2019-01-19T06:18:04.298Z,98296.88
2019-01-19T06:20:34.780Z,98294.05
2019-01-19T06:23:04.059Z,98287.63
2019-01-19T06:25:33.339Z,98294.67
2019-01-19T06:28:02.596Z,98295.89
2019-01-19T06:30:31.881Z,98284.75
2019-01-19T06:33:01.143Z,98290.55
2019-01-19T06:35:30.426Z,98285.52
2019-01-19T06:37:59.695Z,98290.27
2019-01-19T06:40:28.952Z,98289.68
2019-01-19T06:42:58.226Z,98290.48
2019-01-19T06:45:27.624Z,98286.11
2019-01-19T06:47:56.911Z,98290.45
2019-01-19T06:50:26.169Z,98288.00
2019-01-19T06:52:58.426Z,98289.45
2019-01-19T06:55:35.757Z,98286.78
2019-01-19T06:58:05.403Z,98292.02
2019-01-19T07:00:34.964Z,98293.98
2019-01-19T07:03:07.226Z,98287.69
2019-01-19T07:05:36.831Z,98286.11
2019-01-19T07:08:06.083Z,98293.27
2019-01-19T07:10:35.616Z,98291.16
2019-01-19T07:13:04.890Z,98289.62
2019-01-19T07:15:34.428Z,98292.44
2019-01-19T07:18:03.718Z,98290.92
2019-01-19T07:20:33.139Z,98290.30
2019-01-19T07:23:02.486Z,98282.23
2019-01-19T07:25:31.751Z,98287.79
2019-01-19T07:28:01.026Z,98291.02
2019-01-19T07:30:30.299Z,98286.81
2019-01-19T07:32:59.663Z,98289.91
2019-01-19T07:35:28.976Z,98287.23
2019-01-19T07:38:00.361Z,98289.44
2019-01-19T07:40:29.646Z,98297.34
2019-01-19T07:43:07.262Z,98295.58
2019-01-19T07:45:36.745Z,98298.16
2019-01-19T07:48:06.579Z,98306.22
2019-01-19T07:50:35.871Z,98302.58
2019-01-19T07:53:05.131Z,98308.28
2019-01-19T07:55:34.594Z,98302.05
2019-01-19T07:58:03.900Z,98302.89
2019-01-19T08:00:33.894Z,98310.12
2019-01-19T08:03:03.177Z,98302.34
2019-01-19T08:05:32.465Z,98306.55
2019-01-19T08:08:01.731Z,98302.95
2019-01-19T08:10:30.999Z,98309.78
2019-01-19T08:13:00.264Z,98311.88
2019-01-19T08:15:29.975Z,98306.48
2019-01-19T08:17:59.245Z,98306.48
2019-01-19T08:20:28.515Z,98306.09
2019-01-19T08:22:57.805Z,98303.32
2019-01-19T08:25:27.072Z,98303.83
2019-01-19T08:27:57.567Z,98303.85
2019-01-19T08:30:28.673Z,98299.71
2019-01-19T08:32:58.051Z,98288.38
2019-01-19T08:35:27.827Z,98292.06
2019-01-19T08:37:57.102Z,98290.36
2019-01-19T08:40:31.864Z,98291.28
2019-01-19T08:43:15.525Z,98296.02
2019-01-19T08:45:44.992Z,98284.16
2019-01-19T08:48:14.728Z,98286.50
2019-01-19T08:50:44.024Z,98288.59
2019-01-19T08:53:13.286Z,98285.73
2019-01-19T08:55:42.549Z,98284.92
2019-01-19T08:58:11.830Z,98273.70
2019-01-19T09:00:42.871Z,98282.08
2019-01-19T09:03:12.148Z,98276.59
2019-01-19T09:05:41.397Z,98282.12
2019-01-19T09:08:10.786Z,98277.43
2019-01-19T09:10:40.058Z,98268.16
2019-01-19T09:13:09.319Z,98271.02
2019-01-19T09:15:38.596Z,98266.12
2019-01-19T09:18:07.861Z,98265.08
2019-01-19T09:20:37.226Z,98269.19
2019-01-19T09:23:16.350Z,98267.95
2019-01-19T09:25:45.671Z,98269.63
2019-01-19T09:28:14.926Z,98269.77
2019-01-19T09:30:44.184Z,98273.98
2019-01-19T09:33:13.458Z,98270.50
2019-01-19T09:35:42.721Z,98264.75
2019-01-19T09:38:12.094Z,98270.33
2019-01-19T09:40:41.369Z,98265.48
2019-01-19T09:43:10.938Z,98266.02
2019-01-19T09:45:40.211Z,98270.41
2019-01-19T09:48:09.477Z,98271.04
2019-01-19T09:50:39.202Z,98269.15
2019-01-19T09:53:08.523Z,98274.24
2019-01-19T09:55:37.785Z,98270.18
2019-01-19T09:58:07.066Z,98265.60
2019-01-19T10:00:37.855Z,98264.27
2019-01-19T10:03:07.397Z,98254.85
2019-01-19T10:05:36.679Z,98255.48
2019-01-19T10:08:05.971Z,98261.13
2019-01-19T10:10:35.339Z,98258.66
2019-01-19T10:13:06.611Z,98248.48
2019-01-19T10:15:35.908Z,98256.31
2019-01-19T10:18:05.268Z,98246.16
2019-01-19T10:20:34.588Z,98249.50
2019-01-19T10:23:03.902Z,98243.07
2019-01-19T10:25:33.378Z,98236.75
2019-01-19T10:28:02.723Z,98235.91
2019-01-19T10:30:32.005Z,98236.50
2019-01-19T10:33:01.268Z,98241.41
2019-01-19T10:35:30.553Z,98227.41
2019-01-19T10:38:01.314Z,98229.56
2019-01-19T10:40:30.607Z,98230.05
2019-01-19T10:42:59.856Z,98221.05
2019-01-19T10:45:29.141Z,98219.66
2019-01-19T10:47:58.531Z,98218.28
2019-01-19T10:50:27.804Z,98206.55
2019-01-19T10:52:57.066Z,98209.31
2019-01-19T10:55:26.362Z,98210.72
2019-01-19T10:57:55.621Z,98212.14
2019-01-19T11:00:27.209Z,98197.53
2019-01-19T11:02:57.546Z,98201.28
2019-01-19T11:05:26.957Z,98204.34
2019-01-19T11:08:03.146Z,98195.48
2019-01-19T11:10:29.850Z,98186.75
2019-01-19T11:12:59.143Z,98189.05
2019-01-19T11:15:28.404Z,98190.69
2019-01-19T11:17:57.681Z,98187.02
2019-01-19T11:20:28.724Z,98188.71
2019-01-19T11:22:59.053Z,98180.55
2019-01-19T11:25:28.317Z,98176.50
2019-01-19T11:27:57.567Z,98176.24
2019-01-19T11:30:28.965Z,98175.25
2019-01-19T11:32:58.241Z,98169.66
2019-01-19T11:35:27.616Z,98159.61
2019-01-19T11:37:57.011Z,98155.45
2019-01-19T11:40:28.999Z,98148.23
2019-01-19T11:42:58.265Z,98151.30
2019-01-19T11:45:27.534Z,98145.48
2019-01-19T11:47:56.906Z,98139.68
2019-01-19T11:50:26.214Z,98145.34
2019-01-19T11:52:55.516Z,98139.81
2019-01-19T11:55:24.877Z,98129.97
2019-01-19T11:57:56.899Z,98126.31
2019-01-19T12:00:28.224Z,98122.08
2019-01-19T12:02:57.827Z,98121.68
2019-01-19T12:05:27.078Z,98116.88
2019-01-19T12:07:56.367Z,98112.39
2019-01-19T12:10:27.713Z,98109.07
2019-01-19T12:12:57.593Z,98115.12
2019-01-19T12:15:27.362Z,98096.95
2019-01-19T12:17:58.801Z,98092.25
2019-01-19T12:20:53.272Z,98086.91
2019-01-19T12:23:22.697Z,98084.33
2019-01-19T12:25:51.954Z,98085.92
2019-01-19T12:28:21.289Z,98082.50
2019-01-19T12:30:51.466Z,98074.84
2019-01-19T12:33:20.955Z,98069.21
2019-01-19T12:35:50.247Z,98064.63
2019-01-19T12:38:26.578Z,98062.98
2019-01-19T12:40:50.542Z,98053.86
2019-01-19T12:43:21.971Z,98060.49
2019-01-19T12:45:54.319Z,98047.18
2019-01-19T12:48:23.660Z,98052.04
2019-01-19T12:50:52.922Z,98046.98
2019-01-19T12:53:22.215Z,98045.61
2019-01-19T12:55:51.468Z,98035.25
2019-01-19T12:58:20.998Z,98041.19
2019-01-19T13:00:50.263Z,98040.44
2019-01-19T13:03:19.539Z,98030.27
2019-01-19T13:05:57.020Z,98025.75
2019-01-19T13:08:26.307Z,98026.87
2019-01-19T13:11:17.402Z,98020.86
2019-01-19T13:13:49.236Z,98019.20
2019-01-19T13:16:52.980Z,98011.36
2019-01-19T13:19:30.962Z,98016.88
2019-01-19T13:22:35.841Z,98009.91
2019-01-19T13:25:38.178Z,98015.70
2019-01-19T13:29:12.675Z,98015.85
2019-01-19T13:32:10.133Z,98005.82
2019-01-19T13:35:06.022Z,98005.73
2019-01-19T13:37:58.669Z,98001.81
2019-01-19T13:40:52.883Z,98004.20
2019-01-19T13:43:58.923Z,97995.58
2019-01-19T13:47:13.820Z,97996.86
2019-01-19T13:50:49.524Z,97997.72
2019-01-19T13:53:59.944Z,97993.03
2019-01-19T13:57:12.683Z,97997.58
2019-01-19T14:00:08.038Z,97996.00
2019-01-19T14:03:15.999Z,97993.28
2019-01-19T14:06:18.789Z,97995.02
2019-01-19T14:09:27.573Z,97988.33
2019-01-19T14:12:30.967Z,97988.73
2019-01-19T14:15:31.154Z,97985.64
2019-01-19T14:18:31.641Z,97977.30
2019-01-19T14:21:42.074Z,97980.84
2019-01-19T14:24:54.955Z,97973.34
2019-01-19T14:28:17.552Z,97967.78
2019-01-19T14:31:28.830Z,97961.59
2019-01-19T14:34:37.618Z,97959.83
2019-01-19T14:37:43.762Z,97961.42
2019-01-19T14:41:02.910Z,97961.16
2019-01-19T14:43:59.573Z,97954.19
2019-01-19T14:46:48.872Z,97949.25
2019-01-19T14:49:42.187Z,97944.93
2019-01-19T14:52:49.550Z,97936.39
2019-01-19T14:55:53.618Z,97942.51
2019-01-19T14:58:59.378Z,97941.04
2019-01-19T15:02:04.647Z,97944.73
2019-01-19T15:04:52.969Z,97945.95
2019-01-19T15:07:50.334Z,97937.41
2019-01-19T15:10:33.842Z,97936.33
2019-01-19T15:13:26.209Z,97925.69
2019-01-19T15:16:30.702Z,97927.59
2019-01-19T15:19:36.991Z,97927.04
2019-01-19T15:22:55.667Z,97920.69
2019-01-19T15:25:55.772Z,97932.72
2019-01-19T15:28:50.039Z,97930.42
2019-01-19T15:31:31.760Z,97927.07
2019-01-19T15:34:27.988Z,97920.75
2019-01-19T15:37:32.161Z,97914.13
2019-01-19T15:40:38.015Z,97919.97
2019-01-19T15:43:26.899Z,97912.36
2019-01-19T15:46:41.887Z,97913.88
2019-01-19T15:49:35.019Z,97919.27
2019-01-19T15:52:21.120Z,97912.63
2019-01-19T15:55:22.795Z,97915.61
2019-01-19T15:58:14.814Z,97920.02
2019-01-19T16:01:36.929Z,97915.00
2019-01-19T16:04:41.942Z,97918.27
2019-01-19T16:07:52.195Z,97918.84
2019-01-19T16:11:14.895Z,97922.12
2019-01-19T16:14:33.347Z,97915.82
2019-01-19T16:17:33.529Z,97930.39
2019-01-19T16:20:42.548Z,97921.20
2019-01-19T16:23:41.878Z,97918.52
2019-01-19T16:26:33.065Z,97922.43
2019-01-19T16:29:29.767Z,97918.23
2019-01-19T16:32:43.383Z,97922.66
2019-01-19T16:35:52.673Z,97920.70
2019-01-19T16:38:37.955Z,97922.88
2019-01-19T16:41:51.417Z,97928.73
2019-01-19T16:44:56.379Z,97927.00
2019-01-19T16:47:54.398Z,97924.12
2019-01-19T16:51:05.015Z,97918.66
2019-01-19T16:54:14.621Z,97917.20
2019-01-19T16:57:36.128Z,97919.63
2019-01-19T17:00:42.919Z,97914.66
2019-01-19T17:03:58.311Z,97915.28
2019-01-19T17:07:11.796Z,97917.03
2019-01-19T17:10:13.383Z,97919.20
2019-01-19T17:13:11.928Z,97912.28
2019-01-19T17:16:24.434Z,97907.52
2019-01-19T17:19:31.817Z,97912.17
2019-01-19T17:22:39.969Z,97909.99
2019-01-19T17:25:49.262Z,97905.09
2019-01-19T17:29:17.971Z,97909.59
2019-01-19T17:32:25.423Z,97913.64
2019-01-19T17:35:29.260Z,97917.38
2019-01-19T17:38:10.884Z,97912.47
2019-01-19T17:41:14.933Z,97917.92
2019-01-19T17:43:53.877Z,97926.81
2019-01-19T17:46:38.414Z,97919.40
2019-01-19T17:49:58.545Z,97919.17
2019-01-19T17:53:15.336Z,97927.05
2019-01-19T17:56:28.961Z,97930.01
2019-01-19T17:59:39.980Z,97920.62
2019-01-19T18:02:38.049Z,97925.66
2019-01-19T18:05:14.806Z,97917.31
2019-01-19T18:08:14.185Z,97923.62
2019-01-19T18:11:39.985Z,97926.58
2019-01-19T18:14:50.726Z,97921.72
2019-01-19T18:17:57.185Z,97922.03
2019-01-19T18:21:06.760Z,97919.86
2019-01-19T18:24:11.626Z,97930.56
2019-01-19T18:27:54.037Z,97925.66
2019-01-19T18:30:57.450Z,97927.16
2019-01-19T18:33:59.251Z,97926.18
2019-01-19T18:37:05.685Z,97927.53
2019-01-19T18:40:19.781Z,97929.11
2019-01-19T18:43:32.519Z,97920.06
2019-01-19T18:46:36.400Z,97926.06
2019-01-19T18:49:52.606Z,97926.77
2019-01-19T18:52:48.365Z,97926.12
2019-01-19T18:55:51.650Z,97925.62
2019-01-19T18:58:59.761Z,97921.63
2019-01-19T19:01:58.860Z,97924.00
2019-01-19T19:05:08.927Z,97931.36
2019-01-19T19:08:03.131Z,97931.62
2019-01-19T19:11:12.605Z,97924.12
2019-01-19T19:14:13.296Z,97928.68
2019-01-19T19:17:38.171Z,97926.34
2019-01-19T19:20:48.949Z,97923.42
2019-01-19T19:23:33.528Z,97929.33
2019-01-19T19:26:42.285Z,97924.81
2019-01-19T19:29:40.639Z,97920.80
2019-01-19T19:32:50.873Z,97921.36
2019-01-19T19:35:47.556Z,97924.32
2019-01-19T19:39:15.879Z,97923.02
2019-01-19T19:42:35.016Z,97922.77
2019-01-19T19:45:48.645Z,97917.95
2019-01-19T19:48:36.062Z,97915.06
2019-01-19T19:52:01.504Z,97910.23
2019-01-19T19:54:32.037Z,97916.09
2019-01-19T19:57:02.139Z,97909.12
2019-01-19T19:59:31.425Z,97914.53
2019-01-19T20:02:02.532Z,97909.44
2019-01-19T20:04:32.200Z,97914.21
2019-01-19T20:07:01.638Z,97915.11
2019-01-19T20:09:31.289Z,97914.27
2019-01-19T20:12:10.941Z,97919.56
2019-01-19T20:14:40.371Z,97915.05
2019-01-19T20:17:09.900Z,97916.13
2019-01-19T20:19:42.484Z,97918.75
2019-01-19T20:22:14.481Z,97916.94
2019-01-19T20:24:46.768Z,97910.78
2019-01-19T20:27:16.545Z,97907.31
2019-01-19T20:29:46.113Z,97907.04
2019-01-19T20:32:15.451Z,97908.70
2019-01-19T20:34:48.875Z,97906.86
2019-01-19T20:37:20.568Z,97914.61
2019-01-19T20:39:50.508Z,97913.28
2019-01-19T20:42:21.305Z,97905.75
2019-01-19T20:44:51.000Z,97910.56
2019-01-19T20:47:20.570Z,97909.71
2019-01-19T20:49:50.074Z,97919.66
2019-01-19T20:52:19.491Z,97916.19
2019-01-19T20:54:49.737Z,97918.05
2019-01-19T20:57:19.172Z,97914.58
2019-01-19T20:59:50.692Z,97916.19
2019-01-19T21:02:21.592Z,97920.19
2019-01-19T21:04:51.708Z,97917.83
2019-01-19T21:07:21.201Z,97917.02
2019-01-19T21:09:50.560Z,97914.08
2019-01-19T21:12:21.840Z,97919.98
2019-01-19T21:14:52.579Z,97927.48
2019-01-19T21:17:21.889Z,97919.98
2019-01-19T21:19:51.554Z,97921.62
2019-01-19T21:22:20.939Z,97920.52
2019-01-19T21:24:50.235Z,97916.27
2019-01-19T21:27:19.553Z,97919.75
2019-01-19T21:29:48.824Z,97917.07
2019-01-19T21:32:18.426Z,97916.81
2019-01-19T21:34:48.186Z,97916.79
2019-01-19T21:37:17.517Z,97919.75
2019-01-19T21:39:46.809Z,97917.05
2019-01-19T21:42:16.473Z,97922.69
2019-01-19T21:44:45.762Z,97915.20
2019-01-19T21:47:15.042Z,97918.41
2019-01-19T21:49:44.565Z,97912.80
2019-01-19T21:52:13.847Z,97910.93
2019-01-19T21:54:43.158Z,97912.52
2019-01-19T21:57:12.865Z,97909.31
2019-01-19T21:59:42.571Z,97908.80
2019-01-19T22:02:11.917Z,97915.73
2019-01-19T22:04:41.453Z,97915.72
2019-01-19T22:07:12.559Z,97906.38
2019-01-19T22:09:42.458Z,97905.31
2019-01-19T22:12:11.792Z,97906.36
2019-01-19T22:14:41.093Z,97914.91
2019-01-19T22:17:11.038Z,97907.45
2019-01-19T22:19:40.313Z,97903.16
2019-01-19T22:22:09.588Z,97913.04
2019-01-19T22:24:38.912Z,97915.72
2019-01-19T22:27:09.115Z,97912.27
2019-01-19T22:29:39.567Z,97913.05
2019-01-19T22:32:09.108Z,97917.88
2019-01-19T22:34:38.416Z,97914.67
2019-01-19T22:37:07.730Z,97919.48
2019-01-19T22:39:37.682Z,97915.70
2019-01-19T22:42:06.964Z,97915.45
2019-01-19T22:44:36.223Z,97919.98
2019-01-19T22:47:05.603Z,97911.98
2019-01-19T22:49:34.868Z,97913.04
2019-01-19T22:52:04.170Z,97908.78
2019-01-19T22:54:33.468Z,97911.69
2019-01-19T22:57:02.762Z,97909.58
2019-01-19T22:59:32.351Z,97906.35
2019-01-19T23:02:08.450Z,97906.35
2019-01-19T23:04:37.710Z,97904.17
2019-01-19T23:07:08.498Z,97918.34
2019-01-19T23:09:37.790Z,97913.81
2019-01-19T23:12:07.079Z,97915.67
2019-01-19T23:14:36.737Z,97906.84
2019-01-19T23:17:06.001Z,97906.31
2019-01-19T23:19:35.418Z,97904.70
2019-01-19T23:22:05.002Z,97900.66
2019-01-19T23:24:35.878Z,97904.45
2019-01-19T23:27:07.271Z,97900.42
2019-01-19T23:29:36.580Z,97901.20
2019-01-19T23:32:06.602Z,97908.92
2019-01-19T23:34:35.875Z,97908.35
2019-01-19T23:37:05.703Z,97901.46
2019-01-19T23:39:35.062Z,97909.72
2019-01-19T23:42:04.869Z,97897.45
2019-01-19T23:44:34.143Z,97898.53
2019-01-19T23:47:03.443Z,97899.06
2019-01-19T23:49:32.709Z,97896.64
2019-01-19T23:52:02.423Z,97902.20
2019-01-19T23:54:31.703Z,97902.23
2019-01-19T23:57:00.957Z,97900.40
2019-01-19T23:59:30.269Z,97904.30
